Time;durP1;ratioP1;P1;durP2;ratioP2;P2;SDS_P1;SDS_P2;PMS_P1;PMS_P2;Temp;Humidity;BMP_temperature;BMP_pressure;BME280_temperature;BME280_humidity;BME280_pressure;Samples;Min_cycle;Max_cycle;Signal;HPM_P1;HPM_P2
2022/08/07 00:01:22;;;;;;;3.50;1.98;;;28.20;99.90;;;;;;5000281;28;20045;-70
2022/08/07 00:03:48;;;;;;;3.38;1.83;;;28.10;99.90;;;;;;5002879;28;20042;-70
2022/08/07 00:06:14;;;;;;;4.45;2.08;;;28.00;99.90;;;;;;4999472;28;20038;-71
2022/08/07 00:08:40;;;;;;;4.22;2.13;;;28.00;99.90;;;;;;4980842;28;20096;-70
2022/08/07 00:11:06;;;;;;;3.10;1.73;;;27.90;99.90;;;;;;4978921;28;20092;-70
2022/08/07 00:13:33;;;;;;;2.80;1.77;;;27.80;99.90;;;;;;4997770;28;20505;-70
2022/08/07 00:15:59;;;;;;;4.22;1.85;;;27.70;99.90;;;;;;4978267;28;20062;-70
2022/08/07 00:18:28;;;;;;;3.42;1.73;;;27.60;99.90;;;;;;4979630;28;20084;-70
2022/08/07 00:20:59;;;;;;;5.50;2.42;;;27.60;99.90;;;;;;4983559;28;20041;-71
2022/08/07 00:23:25;;;;;;;3.83;2.35;;;27.50;99.90;;;;;;4995885;28;20632;-71
2022/08/07 00:25:52;;;;;;;5.95;2.05;;;27.50;99.90;;;;;;4999564;28;20038;-69
2022/08/07 00:28:18;;;;;;;4.60;2.00;;;27.40;99.80;;;;;;4981416;28;20045;-71
2022/08/07 00:30:44;;;;;;;4.93;1.75;;;27.30;99.60;;;;;;4980272;28;20587;-70
2022/08/07 00:33:10;;;;;;;2.30;1.65;;;27.30;99.60;;;;;;4997841;28;20030;-70
2022/08/07 00:35:36;;;;;;;3.78;1.48;;;27.30;99.70;;;;;;4997151;28;20501;-70
2022/08/07 00:38:02;;;;;;;5.40;2.17;;;27.20;99.60;;;;;;5003271;28;20049;-70
2022/08/07 00:40:28;;;;;;;3.90;1.90;;;27.30;99.60;;;;;;4995649;28;20460;-70
2022/08/07 00:42:55;;;;;;;2.80;2.10;;;27.30;99.60;;;;;;4993644;28;20046;-71
2022/08/07 00:45:21;;;;;;;3.03;1.90;;;27.30;99.60;;;;;;4979112;28;20046;-71
2022/08/07 00:47:49;;;;;;;3.88;1.90;;;27.20;99.60;;;;;;4998102;28;20736;-71
2022/08/07 00:50:16;;;;;;;4.28;1.90;;;27.10;99.60;;;;;;4999597;28;20045;-70
2022/08/07 00:52:42;;;;;;;3.83;1.88;;;27.20;99.80;;;;;;4982927;28;20062;-71
2022/08/07 00:55:08;;;;;;;3.58;1.88;;;27.20;99.90;;;;;;4999766;28;20140;-70
2022/08/07 00:57:34;;;;;;;3.40;1.92;;;27.30;99.90;;;;;;4996681;28;20037;-71
2022/08/07 01:00:04;;;;;;;4.65;2.00;;;27.20;99.90;;;;;;5001366;28;20080;-71
2022/08/07 01:02:30;;;;;;;3.47;2.08;;;27.00;99.90;;;;;;4998424;28;20124;-70
2022/08/07 01:04:57;;;;;;;4.22;2.17;;;27.00;99.90;;;;;;4973255;28;20525;-70
2022/08/07 01:07:24;;;;;;;4.07;2.20;;;27.00;99.90;;;;;;4981778;28;20104;-70
2022/08/07 01:09:50;;;;;;;3.53;2.20;;;26.90;99.90;;;;;;4996322;28;20061;-71
2022/08/07 01:12:17;;;;;;;2.92;2.08;;;26.80;99.90;;;;;;4981204;28;20846;-71
2022/08/07 01:14:44;;;;;;;6.97;2.30;;;26.80;99.90;;;;;;4981506;28;20501;-70
2022/08/07 01:17:11;;;;;;;4.55;2.10;;;26.80;99.90;;;;;;4987918;28;20507;-70
2022/08/07 01:19:38;;;;;;;3.75;2.58;;;26.90;99.90;;;;;;4976348;28;20771;-70
2022/08/07 01:22:05;;;;;;;5.40;2.75;;;26.80;99.90;;;;;;4965393;28;20516;-71
2022/08/07 01:24:31;;;;;;;4.70;2.22;;;26.80;99.90;;;;;;5001037;28;20041;-71
2022/08/07 01:26:58;;;;;;;4.97;2.58;;;26.70;99.90;;;;;;4999814;28;20046;-70
2022/08/07 01:29:25;;;;;;;3.60;2.30;;;26.70;99.90;;;;;;5000283;28;20024;-71
2022/08/07 01:31:52;;;;;;;6.15;2.72;;;26.60;99.90;;;;;;4982690;28;20038;-71
2022/08/07 01:34:19;;;;;;;4.60;2.30;;;26.60;99.90;;;;;;4979067;28;20614;-70
2022/08/07 01:36:48;;;;;;;3.92;1.92;;;26.60;99.90;;;;;;4979745;28;20152;-70
2022/08/07 01:39:14;;;;;;;3.95;2.47;;;26.50;99.90;;;;;;4995171;28;20041;-71
2022/08/07 01:41:43;;;;;;;3.58;2.30;;;26.50;99.90;;;;;;4979547;28;20048;-71
2022/08/07 01:44:10;;;;;;;4.30;2.45;;;26.50;99.90;;;;;;4996553;28;20651;-70
2022/08/07 01:46:38;;;;;;;9.00;2.42;;;26.40;99.90;;;;;;4995458;28;20493;-71
2022/08/07 01:49:04;;;;;;;5.40;2.53;;;26.40;99.90;;;;;;4977349;28;20529;-71
2022/08/07 01:51:31;;;;;;;5.68;2.55;;;26.50;99.90;;;;;;4978721;28;20121;-71
2022/08/07 01:54:03;;;;;;;6.65;2.28;;;26.40;99.90;;;;;;4999314;28;20041;-71
2022/08/07 01:56:51;;;;;;;4.13;2.25;;;26.50;99.90;;;;;;4978386;28;20455;-72
2022/08/07 01:59:28;;;;;;;5.47;2.45;;;26.50;99.90;;;;;;4996034;28;20539;-71
2022/08/07 02:02:01;;;;;;;4.15;2.30;;;26.70;99.90;;;;;;4981234;28;20037;-71
2022/08/07 02:04:39;;;;;;;2.65;2.10;;;26.70;99.90;;;;;;4979780;28;20048;-71
2022/08/07 02:07:08;;;;;;;4.57;2.17;;;26.60;99.90;;;;;;4970445;28;20057;-71
2022/08/07 02:09:34;;;;;;;5.15;2.50;;;26.60;99.90;;;;;;4982541;28;20045;-70
2022/08/07 02:12:15;;;;;;;4.97;2.25;;;26.50;99.90;;;;;;4996624;28;20057;-70
2022/08/07 02:14:47;;;;;;;4.00;2.50;;;26.40;99.90;;;;;;4999524;28;20099;-70
2022/08/07 02:17:16;;;;;;;3.67;2.22;;;26.40;99.90;;;;;;4997369;28;20048;-71
2022/08/07 02:19:46;;;;;;;4.47;2.30;;;26.50;99.90;;;;;;4996417;28;20042;-71
2022/08/07 02:22:15;;;;;;;3.58;2.00;;;26.50;99.90;;;;;;4996086;28;20165;-71
2022/08/07 02:24:45;;;;;;;4.00;2.30;;;26.50;99.90;;;;;;4983474;28;20125;-70
2022/08/07 02:27:15;;;;;;;3.50;2.13;;;26.50;99.90;;;;;;4966472;28;20859;-71
2022/08/07 02:29:43;;;;;;;5.35;1.90;;;26.40;99.90;;;;;;4983683;28;20034;-71
2022/08/07 02:32:11;;;;;;;2.63;2.00;;;26.40;99.90;;;;;;4982098;28;20684;-72
2022/08/07 02:34:40;;;;;;;3.38;1.83;;;26.50;99.90;;;;;;4939861;28;20034;-70
2022/08/07 02:37:08;;;;;;;4.43;2.20;;;26.50;99.90;;;;;;4973600;28;21084;-70
2022/08/07 02:39:40;;;;;;;4.25;2.20;;;26.50;99.90;;;;;;4976991;28;20041;-70
2022/08/07 02:42:07;;;;;;;5.07;2.35;;;26.50;99.90;;;;;;4972751;28;20584;-70
2022/08/07 02:44:35;;;;;;;4.38;1.85;;;26.40;99.90;;;;;;4972918;28;20437;-70
2022/08/07 02:47:02;;;;;;;3.53;2.08;;;26.40;99.90;;;;;;4994418;28;20869;-71
2022/08/07 02:49:29;;;;;;;4.75;2.10;;;26.40;99.90;;;;;;4995152;28;20092;-70
2022/08/07 02:51:58;;;;;;;4.47;2.00;;;26.30;99.90;;;;;;4977540;28;20046;-71
2022/08/07 02:54:27;;;;;;;5.38;1.85;;;26.40;99.90;;;;;;4981131;28;20629;-70
2022/08/07 02:56:57;;;;;;;4.93;2.15;;;26.30;99.90;;;;;;4976202;28;20029;-72
2022/08/07 02:59:25;;;;;;;3.10;2.17;;;26.20;99.90;;;;;;4997182;28;20153;-71
2022/08/07 03:01:53;;;;;;;4.63;2.00;;;26.20;99.90;;;;;;4977504;28;20042;-71
2022/08/07 03:04:21;;;;;;;3.03;2.15;;;26.20;99.90;;;;;;4992351;28;20151;-71
2022/08/07 03:06:49;;;;;;;5.30;2.10;;;26.20;99.90;;;;;;4976340;28;20509;-70
2022/08/07 03:09:17;;;;;;;4.05;2.40;;;26.20;99.90;;;;;;4996053;28;20038;-71
2022/08/07 03:11:44;;;;;;;3.65;2.25;;;26.20;99.90;;;;;;4976436;28;20046;-70
2022/08/07 03:14:11;;;;;;;5.93;2.72;;;26.20;99.90;;;;;;4998192;28;20127;-70
2022/08/07 03:16:39;;;;;;;4.75;2.72;;;26.10;99.90;;;;;;4999099;28;20030;-72
2022/08/07 03:19:05;;;;;;;4.13;2.40;;;26.20;99.90;;;;;;4996036;28;20149;-71
2022/08/07 03:21:31;;;;;;;4.30;2.28;;;26.20;99.90;;;;;;4996624;28;20821;-71
2022/08/07 03:24:02;;;;;;;4.45;2.03;;;26.30;99.90;;;;;;4995005;28;20068;-70
2022/08/07 03:26:31;;;;;;;5.93;1.88;;;26.30;99.90;;;;;;4974303;28;20065;-70
2022/08/07 03:29:01;;;;;;;3.22;2.05;;;26.30;99.90;;;;;;4995236;28;20046;-70
2022/08/07 03:31:28;;;;;;;7.30;2.13;;;26.40;99.90;;;;;;4954852;28;20473;-70
2022/08/07 03:34:01;;;;;;;6.90;1.75;;;26.30;99.90;;;;;;4995792;28;20029;-70
2022/08/07 03:36:28;;;;;;;5.53;2.65;;;26.30;99.90;;;;;;4996339;28;20043;-70
2022/08/07 03:38:58;;;;;;;3.83;2.00;;;26.30;99.90;;;;;;4978211;28;20034;-71
2022/08/07 03:41:25;;;;;;;3.05;1.90;;;26.30;99.90;;;;;;4997230;28;20089;-70
2022/08/07 03:43:53;;;;;;;4.75;2.28;;;26.30;99.90;;;;;;4979272;28;20064;-71
2022/08/07 03:46:20;;;;;;;2.70;1.70;;;26.30;99.90;;;;;;4978334;28;20038;-70
2022/08/07 03:48:46;;;;;;;2.38;1.80;;;26.30;99.90;;;;;;4999123;28;20137;-70
2022/08/07 03:51:12;;;;;;;2.40;1.90;;;26.30;99.90;;;;;;4969510;28;20038;-71
2022/08/07 03:53:39;;;;;;;5.38;1.98;;;26.30;99.90;;;;;;4997929;28;20131;-71
2022/08/07 03:56:05;;;;;;;4.18;1.80;;;26.20;99.90;;;;;;5002288;28;20068;-70
2022/08/07 03:58:32;;;;;;;4.05;2.03;;;26.20;99.90;;;;;;4984620;28;20092;-70
2022/08/07 04:00:58;;;;;;;4.85;2.17;;;26.20;99.90;;;;;;4985733;28;20049;-70
2022/08/07 04:03:25;;;;;;;3.72;1.88;;;26.20;99.90;;;;;;4980576;28;20054;-70
2022/08/07 04:05:51;;;;;;;2.70;1.90;;;26.10;99.90;;;;;;4982958;28;20068;-70
2022/08/07 04:08:17;;;;;;;4.00;1.80;;;26.00;99.90;;;;;;4995770;28;20034;-70
2022/08/07 04:10:44;;;;;;;5.65;2.17;;;26.00;99.90;;;;;;5000565;28;20049;-71
2022/08/07 04:13:13;;;;;;;6.28;2.05;;;26.10;99.90;;;;;;4998112;28;22047;-70
2022/08/07 04:15:40;;;;;;;3.72;2.10;;;26.10;99.90;;;;;;5002669;28;20069;-71
2022/08/07 04:18:05;;;;;;;3.80;1.80;;;26.10;99.90;;;;;;4982829;28;20580;-70
2022/08/07 04:20:31;;;;;;;3.72;1.90;;;26.10;99.70;;;;;;4981638;28;20034;-71
2022/08/07 04:22:58;;;;;;;2.55;1.77;;;26.10;99.70;;;;;;5001571;28;20349;-70
2022/08/07 04:25:26;;;;;;;3.53;2.20;;;26.10;99.60;;;;;;4989701;28;20428;-70
2022/08/07 04:27:52;;;;;;;3.35;1.90;;;26.00;99.80;;;;;;4989320;28;20045;-70
2022/08/07 04:30:18;;;;;;;3.60;1.90;;;26.00;99.90;;;;;;4982611;28;20025;-70
2022/08/07 04:32:45;;;;;;;2.60;1.77;;;25.90;99.90;;;;;;5000653;28;20545;-70
2022/08/07 04:35:11;;;;;;;5.50;1.95;;;25.80;99.90;;;;;;4982574;28;20103;-71
2022/08/07 04:37:37;;;;;;;2.72;1.95;;;25.90;99.90;;;;;;5000255;28;20057;-71
2022/08/07 04:40:04;;;;;;;3.45;2.17;;;25.90;99.90;;;;;;4989446;28;20789;-71
2022/08/07 04:42:33;;;;;;;3.90;2.20;;;26.00;99.90;;;;;;5001105;28;20045;-71
2022/08/07 04:45:00;;;;;;;4.13;1.88;;;26.00;99.90;;;;;;4998071;28;20527;-71
2022/08/07 04:48:00;;;;;;;3.25;2.00;;;26.10;99.90;;;;;;4983315;28;20117;-71
2022/08/07 04:50:35;;;;;;;3.70;2.20;;;26.00;99.90;;;;;;4997217;28;20034;-69
2022/08/07 04:53:11;;;;;;;4.18;2.38;;;26.10;99.90;;;;;;4978781;28;20443;-71
2022/08/07 04:55:45;;;;;;;5.18;2.20;;;26.10;99.90;;;;;;4994338;28;20124;-70
2022/08/07 04:58:45;;;;;;;5.15;2.10;;;26.10;99.90;;;;;;4981338;28;20029;-71
2022/08/07 05:01:20;;;;;;;2.78;1.90;;;26.00;99.90;;;;;;4973991;28;20029;-71
2022/08/07 05:04:13;;;;;;;4.43;2.08;;;26.00;99.90;;;;;;4993289;28;20113;-71
2022/08/07 05:06:53;;;;;;;5.05;2.38;;;26.10;99.90;;;;;;4996948;28;20052;-70
2022/08/07 05:09:31;;;;;;;3.25;2.10;;;26.10;99.90;;;;;;4984701;28;20399;-70
2022/08/07 05:12:01;;;;;;;4.85;2.25;;;26.10;99.90;;;;;;4998618;28;20516;-71
2022/08/07 05:14:34;;;;;;;7.07;2.38;;;26.20;99.90;;;;;;5000167;28;20041;-71
2022/08/07 05:17:03;;;;;;;6.10;2.33;;;26.10;99.90;;;;;;4997661;28;20032;-70
2022/08/07 05:19:37;;;;;;;3.35;2.10;;;26.20;99.90;;;;;;4990803;28;20034;-71
2022/08/07 05:22:06;;;;;;;2.95;2.00;;;26.20;99.90;;;;;;4990216;28;20045;-70
2022/08/07 05:24:33;;;;;;;4.22;2.40;;;26.20;99.90;;;;;;4995655;28;20045;-71
2022/08/07 05:27:01;;;;;;;3.50;2.20;;;26.20;99.90;;;;;;4996937;28;20062;-71
2022/08/07 05:29:29;;;;;;;3.63;2.10;;;26.20;99.90;;;;;;4977188;28;20048;-71
2022/08/07 05:31:58;;;;;;;4.22;2.53;;;26.30;99.90;;;;;;4973421;28;20147;-71
2022/08/07 05:34:25;;;;;;;5.38;2.50;;;26.30;99.90;;;;;;4990687;28;20607;-70
2022/08/07 05:36:53;;;;;;;5.25;2.63;;;26.40;99.90;;;;;;4979251;28;20095;-71
2022/08/07 05:39:20;;;;;;;4.07;2.50;;;26.40;99.90;;;;;;4990693;28;20041;-71
2022/08/07 05:41:48;;;;;;;5.85;2.58;;;26.40;99.90;;;;;;4995967;28;20042;-70
2022/08/07 05:44:17;;;;;;;4.53;2.47;;;26.40;99.90;;;;;;4996224;28;20481;-70
2022/08/07 05:46:45;;;;;;;4.07;2.55;;;26.50;99.90;;;;;;4994912;28;20137;-71
2022/08/07 05:49:11;;;;;;;4.90;2.20;;;26.60;99.90;;;;;;4995555;28;20595;-71
2022/08/07 05:51:37;;;;;;;6.38;2.33;;;26.60;99.90;;;;;;4977912;28;20039;-70
2022/08/07 05:54:03;;;;;;;4.75;2.40;;;26.70;99.90;;;;;;4990574;28;20048;-69
2022/08/07 05:56:32;;;;;;;5.70;2.72;;;26.70;99.90;;;;;;4993441;28;20034;-71
2022/08/07 05:59:01;;;;;;;4.90;2.65;;;26.90;99.90;;;;;;4996878;28;20479;-70
2022/08/07 06:01:29;;;;;;;5.03;2.40;;;26.90;99.90;;;;;;4992416;28;20038;-71
2022/08/07 06:03:57;;;;;;;6.05;2.55;;;27.00;99.90;;;;;;4996112;28;20052;-70
2022/08/07 06:06:25;;;;;;;6.75;2.70;;;27.10;99.90;;;;;;4976675;28;21127;-70
2022/08/07 06:08:52;;;;;;;6.45;2.90;;;27.10;99.90;;;;;;4976125;28;20184;-70
2022/08/07 06:11:19;;;;;;;4.53;2.90;;;27.10;99.90;;;;;;4978708;28;20053;-71
2022/08/07 06:13:45;;;;;;;6.93;2.33;;;27.20;99.90;;;;;;4962293;28;20039;-71
2022/08/07 06:16:13;;;;;;;6.10;2.55;;;27.20;99.90;;;;;;4978048;28;20111;-70
2022/08/07 06:18:40;;;;;;;4.22;2.53;;;27.20;99.90;;;;;;4983433;28;20030;-70
2022/08/07 06:21:07;;;;;;;5.07;2.50;;;27.20;99.90;;;;;;4979064;28;20049;-71
2022/08/07 06:23:34;;;;;;;5.07;2.42;;;27.20;99.90;;;;;;4995641;28;20052;-70
2022/08/07 06:26:01;;;;;;;4.00;2.50;;;27.20;99.90;;;;;;4981502;28;20044;-71
2022/08/07 06:28:26;;;;;;;5.18;2.60;;;27.20;99.90;;;;;;4997760;28;20040;-70
2022/08/07 06:30:52;;;;;;;11.35;2.70;;;27.10;99.90;;;;;;4997682;28;20042;-71
2022/08/07 06:33:20;;;;;;;6.15;2.60;;;27.10;99.90;;;;;;4988319;28;20068;-71
2022/08/07 06:35:46;;;;;;;4.60;2.63;;;27.20;99.90;;;;;;4980343;28;20069;-71
2022/08/07 06:38:12;;;;;;;7.93;2.70;;;27.20;99.90;;;;;;4985720;28;20038;-70
2022/08/07 06:40:46;;;;;;;5.68;2.70;;;27.30;99.90;;;;;;4998362;28;20076;-70
2022/08/07 06:43:14;;;;;;;6.13;3.00;;;27.40;99.90;;;;;;4997263;28;20033;-71
2022/08/07 06:45:40;;;;;;;5.45;2.47;;;27.50;99.90;;;;;;4981257;28;20065;-71
2022/08/07 06:48:06;;;;;;;4.05;2.42;;;27.70;99.90;;;;;;4999005;28;20030;-70
2022/08/07 06:50:34;;;;;;;8.88;2.80;;;27.80;99.90;;;;;;4998738;28;20030;-70
2022/08/07 06:53:03;;;;;;;4.50;2.63;;;27.90;99.90;;;;;;4977956;28;20034;-70
2022/08/07 06:55:30;;;;;;;8.65;2.80;;;28.10;99.90;;;;;;4979808;28;20104;-71
2022/08/07 06:57:59;;;;;;;4.70;2.65;;;28.20;99.90;;;;;;4964785;28;20529;-70
2022/08/07 07:00:29;;;;;;;5.03;2.47;;;28.30;99.90;;;;;;4996921;28;20112;-70
2022/08/07 07:02:56;;;;;;;6.32;2.53;;;28.50;99.90;;;;;;5003704;28;20417;-70
2022/08/07 07:05:22;;;;;;;5.22;2.47;;;28.60;99.90;;;;;;4996968;28;20116;-70
2022/08/07 07:07:47;;;;;;;4.97;2.55;;;28.80;99.90;;;;;;4998397;28;20124;-71
2022/08/07 07:10:14;;;;;;;7.28;2.90;;;28.90;99.90;;;;;;4995696;28;20520;-71
2022/08/07 07:12:48;;;;;;;5.95;2.72;;;29.00;99.90;;;;;;4994595;28;20112;-71
2022/08/07 07:15:33;;;;;;;7.72;2.40;;;29.00;99.90;;;;;;4978903;28;20052;-70
2022/08/07 07:18:19;;;;;;;6.32;3.05;;;29.10;99.90;;;;;;4966727;28;20097;-71
2022/08/07 07:21:07;;;;;;;6.75;2.60;;;29.20;99.90;;;;;;4990376;28;20080;-71
2022/08/07 07:23:33;;;;;;;4.32;2.60;;;29.10;99.90;;;;;;4997918;28;20113;-71
2022/08/07 07:26:02;;;;;;;4.50;2.63;;;29.10;99.90;;;;;;5000086;28;20030;-71
2022/08/07 07:28:43;;;;;;;4.28;2.85;;;29.20;99.90;;;;;;4977831;28;20063;-70
2022/08/07 07:31:22;;;;;;;4.67;2.47;;;29.20;99.90;;;;;;4986502;28;20065;-70
2022/08/07 07:33:54;;;;;;;5.78;2.38;;;29.10;99.90;;;;;;4997524;28;20049;-71
2022/08/07 07:36:23;;;;;;;6.20;2.88;;;29.20;99.90;;;;;;4999105;28;20030;-70
2022/08/07 07:38:50;;;;;;;6.13;3.00;;;29.20;99.90;;;;;;4996902;28;20092;-71
2022/08/07 07:41:20;;;;;;;9.00;2.78;;;29.20;99.90;;;;;;4997829;28;20052;-70
2022/08/07 07:43:49;;;;;;;6.80;3.20;;;29.30;99.90;;;;;;4997586;28;20468;-70
2022/08/07 07:46:16;;;;;;;5.15;3.00;;;29.40;99.90;;;;;;4998608;28;20445;-72
2022/08/07 07:48:45;;;;;;;6.55;3.20;;;29.40;99.90;;;;;;5000258;28;20038;-70
2022/08/07 07:51:13;;;;;;;4.40;2.80;;;29.50;99.90;;;;;;4980886;28;20042;-70
2022/08/07 07:53:44;;;;;;;5.45;2.75;;;29.50;99.90;;;;;;4995810;28;20909;-71
2022/08/07 07:56:12;;;;;;;8.45;2.83;;;29.60;99.90;;;;;;4999463;28;20104;-70
2022/08/07 07:58:39;;;;;;;8.73;3.03;;;29.60;99.90;;;;;;4978328;28;20139;-70
2022/08/07 08:01:07;;;;;;;9.35;2.80;;;29.80;99.90;;;;;;4999400;28;20482;-69
2022/08/07 08:03:35;;;;;;;7.22;2.53;;;29.80;99.90;;;;;;5000729;28;20480;-70
2022/08/07 08:06:02;;;;;;;4.40;2.70;;;29.80;99.90;;;;;;4978807;28;20068;-70
2022/08/07 08:08:31;;;;;;;6.15;2.90;;;29.70;99.90;;;;;;4982007;28;20443;-70
2022/08/07 08:10:58;;;;;;;7.32;2.95;;;29.90;99.90;;;;;;4977161;28;20259;-71
2022/08/07 08:13:26;;;;;;;6.55;3.03;;;30.00;99.90;;;;;;4996527;28;20121;-70
2022/08/07 08:15:53;;;;;;;6.35;3.10;;;30.20;99.90;;;;;;4982249;28;21049;-71
2022/08/07 08:18:20;;;;;;;6.78;3.35;;;30.20;99.90;;;;;;4997832;28;20108;-71
2022/08/07 08:20:47;;;;;;;5.75;2.60;;;30.20;99.90;;;;;;5000607;28;20142;-70
2022/08/07 08:28:50;;;;;;;4.55;2.50;;;30.50;99.60;;;;;;4997443;28;20072;-71
2022/08/07 08:31:27;;;;;;;3.88;2.53;;;30.50;99.90;;;;;;4989058;28;20139;-70
2022/08/07 08:33:55;;;;;;;7.13;2.30;;;30.50;99.70;;;;;;4976209;28;20053;-71
2022/08/07 08:36:25;;;;;;;5.03;2.40;;;30.40;99.70;;;;;;4979214;28;20052;-71
2022/08/07 08:38:53;;;;;;;4.40;2.33;;;30.40;99.20;;;;;;4981773;28;20030;-70
2022/08/07 08:41:52;;;;;;;5.70;2.53;;;30.50;98.80;;;;;;4988793;28;20077;-70
2022/08/07 08:44:23;;;;;;;4.88;2.40;;;31.70;97.00;;;;;;4998604;28;20389;-70
2022/08/07 08:46:52;;;;;;;3.95;2.97;;;33.20;95.70;;;;;;4996330;28;20079;-70
2022/08/07 08:49:51;;;;;;;4.03;2.00;;;34.10;94.40;;;;;;4976584;28;20113;-70
2022/08/07 08:52:45;;;;;;;4.72;2.05;;;34.90;93.70;;;;;;4996402;28;20064;-70
2022/08/07 08:55:25;;;;;;;6.10;2.25;;;35.50;92.50;;;;;;4997291;28;20042;-71
2022/08/07 08:58:30;;;;;;;3.63;2.03;;;35.70;92.20;;;;;;4957736;28;20065;-70
2022/08/07 09:01:11;;;;;;;4.70;2.00;;;35.30;91.30;;;;;;4968464;28;20057;-70
2022/08/07 09:03:46;;;;;;;;;;;35.80;90.80;;;;;;5000204;28;20576;-71
2022/08/07 09:06:37;;;;;;;5.90;2.20;;;36.00;90.20;;;;;;4981997;28;19921;-71
2022/08/07 09:09:29;;;;;;;5.82;1.85;;;36.10;90.20;;;;;;4998935;28;20037;-71
2022/08/07 09:12:04;;;;;;;2.38;1.80;;;36.00;90.30;;;;;;4982062;28;20030;-70
2022/08/07 09:14:33;;;;;;;7.32;1.90;;;36.20;90.20;;;;;;4989103;28;20069;-71
2022/08/07 09:17:35;;;;;;;6.28;2.08;;;36.10;90.40;;;;;;4983079;28;20151;-70
2022/08/07 09:20:26;;;;;;;2.97;2.05;;;36.40;90.30;;;;;;4996525;28;20542;-71
2022/08/07 09:23:25;;;;;;;5.97;2.10;;;36.30;89.70;;;;;;4996999;28;20041;-71
2022/08/07 09:26:14;;;;;;;3.47;2.10;;;35.90;88.50;;;;;;4970557;28;20042;-71
2022/08/07 09:28:44;;;;;;;3.13;1.90;;;35.00;89.70;;;;;;4970608;28;20091;-71
2022/08/07 09:31:31;;;;;;;3.70;1.92;;;35.00;89.50;;;;;;4998101;28;20038;-71
2022/08/07 09:34:12;;;;;;;3.33;2.08;;;35.60;89.40;;;;;;4981574;28;20038;-71
2022/08/07 09:36:46;;;;;;;3.93;2.00;;;36.10;88.80;;;;;;4982439;28;20026;-71
2022/08/07 09:39:35;;;;;;;1.98;1.63;;;35.90;88.00;;;;;;4999710;28;20051;-71
2022/08/07 09:42:06;;;;;;;4.05;2.00;;;36.00;87.90;;;;;;4979552;28;20034;-71
2022/08/07 09:44:54;;;;;;;9.93;2.30;;;36.80;87.80;;;;;;4975070;28;20054;-71
2022/08/07 09:47:25;;;;;;;3.53;1.98;;;37.30;87.60;;;;;;4997839;28;20406;-70
2022/08/07 09:50:22;;;;;;;5.82;2.15;;;37.60;86.60;;;;;;4984037;28;20610;-71
2022/08/07 09:53:03;;;;;;;4.75;2.08;;;37.70;85.90;;;;;;4996242;28;20034;-71
2022/08/07 09:55:44;;;;;;;5.40;2.20;;;36.10;89.10;;;;;;4995636;28;20091;-71
2022/08/07 09:58:28;;;;;;;;;;;35.30;89.30;;;;;;4998611;28;20172;-70
2022/08/07 10:01:14;;;;;;;4.00;2.15;;;35.30;89.00;;;;;;4998784;28;19913;-70
2022/08/07 10:04:08;;;;;;;3.17;2.08;;;36.60;88.50;;;;;;4996825;28;20042;-71
2022/08/07 10:06:40;;;;;;;4.03;1.98;;;37.20;87.60;;;;;;4972136;28;20785;-71
2022/08/07 10:09:33;;;;;;;4.10;1.80;;;37.30;85.50;;;;;;4976037;28;20355;-70
2022/08/07 10:12:27;;;;;;;2.67;2.00;;;37.60;84.90;;;;;;5000800;28;20037;-71
2022/08/07 10:15:04;;;;;;;3.75;2.00;;;37.70;84.10;;;;;;4978529;28;20568;-71
2022/08/07 10:17:56;;;;;;;2.92;2.00;;;37.70;83.80;;;;;;4979554;28;20178;-70
2022/08/07 10:20:50;;;;;;;5.30;2.10;;;37.50;84.50;;;;;;4994580;28;20112;-70
2022/08/07 10:23:53;;;;;;;3.63;2.03;;;37.30;86.20;;;;;;4976421;28;20832;-70
2022/08/07 10:26:37;;;;;;;3.67;2.22;;;37.10;86.20;;;;;;4977504;28;20046;-71
2022/08/07 10:29:25;;;;;;;4.10;2.10;;;36.70;86.00;;;;;;4993721;28;20037;-71
2022/08/07 10:32:03;;;;;;;3.80;2.05;;;36.20;86.90;;;;;;4996857;28;20117;-71
2022/08/07 10:35:04;;;;;;;5.72;2.08;;;36.50;85.60;;;;;;4995231;28;20051;-70
2022/08/07 10:37:52;;;;;;;3.55;2.30;;;36.90;85.80;;;;;;4963934;28;20045;-71
2022/08/07 10:40:27;;;;;;;3.88;1.90;;;37.40;85.10;;;;;;4992119;28;20452;-70
2022/08/07 10:43:16;;;;;;;2.88;1.88;;;37.50;84.90;;;;;;4960757;28;20105;-71
2022/08/07 10:45:48;;;;;;;2.92;1.73;;;36.50;85.20;;;;;;4996374;28;20453;-70
2022/08/07 10:48:43;;;;;;;6.00;1.80;;;36.70;85.30;;;;;;4993764;28;20037;-70
2022/08/07 10:51:27;;;;;;;6.25;2.00;;;37.20;85.10;;;;;;4971184;28;20045;-70
2022/08/07 10:54:22;;;;;;;3.75;2.00;;;37.20;84.70;;;;;;4997332;28;20613;-70
2022/08/07 10:57:24;;;;;;;5.50;2.13;;;36.10;86.60;;;;;;4969937;28;20029;-71
2022/08/07 11:00:06;;;;;;;3.65;1.92;;;35.70;87.50;;;;;;4997751;28;20030;-71
2022/08/07 11:03:13;;;;;;;3.55;1.73;;;35.10;88.60;;;;;;5002708;28;20025;-70
2022/08/07 11:05:51;;;;;;;3.63;2.20;;;35.10;89.70;;;;;;4979123;28;20624;-71
2022/08/07 11:08:25;;;;;;;5.30;1.95;;;34.70;89.90;;;;;;5000516;28;20061;-71
2022/08/07 11:11:13;;;;;;;4.32;2.20;;;34.50;90.50;;;;;;4999287;28;20030;-70
2022/08/07 11:13:50;;;;;;;4.00;1.98;;;35.10;90.30;;;;;;4995234;28;20048;-70
2022/08/07 11:16:25;;;;;;;4.43;2.10;;;35.10;90.00;;;;;;4997947;28;20454;-70
2022/08/07 11:18:55;;;;;;;4.05;2.15;;;34.90;90.20;;;;;;4997849;28;20484;-71
2022/08/07 11:21:24;;;;;;;3.45;2.30;;;35.10;90.10;;;;;;4996684;28;20041;-70
2022/08/07 11:23:57;;;;;;;3.05;2.00;;;34.80;90.70;;;;;;4998607;28;20042;-71
2022/08/07 11:26:30;;;;;;;4.75;2.28;;;34.80;90.80;;;;;;5000950;28;20041;-71
2022/08/07 11:29:19;;;;;;;4.63;2.28;;;35.10;90.90;;;;;;4996518;28;20033;-70
2022/08/07 11:32:07;;;;;;;6.00;2.15;;;35.60;90.30;;;;;;4996952;28;20064;-70
2022/08/07 11:34:42;;;;;;;2.95;2.00;;;35.60;90.30;;;;;;4999621;28;20076;-71
2022/08/07 11:37:32;;;;;;;3.63;2.30;;;36.20;90.50;;;;;;4995325;28;20044;-70
2022/08/07 11:39:58;;;;;;;3.55;2.85;;;36.50;90.00;;;;;;4993132;28;20045;-71
2022/08/07 11:43:03;;;;;;;4.18;2.10;;;36.30;89.90;;;;;;4985902;28;20058;-71
2022/08/07 11:46:06;;;;;;;6.65;2.30;;;36.90;89.00;;;;;;4980572;28;20040;-70
2022/08/07 11:48:55;;;;;;;4.55;2.30;;;36.40;89.70;;;;;;4998219;28;20042;-72
2022/08/07 11:51:59;;;;;;;4.22;2.28;;;36.50;90.20;;;;;;4974616;28;20497;-71
2022/08/07 11:55:02;;;;;;;4.15;1.95;;;36.50;89.90;;;;;;4987735;28;20041;-71
2022/08/07 11:57:36;;;;;;;3.90;2.15;;;35.80;88.80;;;;;;4995417;28;20162;-71
2022/08/07 12:00:12;;;;;;;7.40;2.70;;;35.90;90.60;;;;;;4998791;28;20133;-72
2022/08/07 12:03:20;;;;;;;5.90;2.65;;;36.80;90.40;;;;;;4982865;28;20037;-70
2022/08/07 12:06:10;;;;;;;5.10;2.42;;;37.00;89.40;;;;;;4954116;28;20044;-71
2022/08/07 12:08:43;;;;;;;4.97;2.20;;;36.30;90.00;;;;;;4979011;28;20099;-71
2022/08/07 12:11:15;;;;;;;3.85;2.28;;;36.00;90.00;;;;;;4999901;28;20033;-71
2022/08/07 12:13:56;;;;;;;3.72;2.08;;;35.30;90.70;;;;;;4999661;28;20464;-71
2022/08/07 12:16:28;;;;;;;4.30;2.15;;;35.00;91.40;;;;;;4996064;28;20137;-70
2022/08/07 12:19:32;;;;;;;5.80;2.33;;;34.90;91.80;;;;;;4972163;28;20042;-71
2022/08/07 12:22:36;;;;;;;21.08;12.63;;;35.60;91.70;;;;;;4940952;28;20489;-70
2022/08/07 12:28:42;;;;;;;11.20;6.25;;;38.20;89.90;;;;;;4997120;28;20052;-71
2022/08/07 12:31:16;;;;;;;5.40;2.38;;;38.60;89.20;;;;;;4980925;28;20523;-71
2022/08/07 12:33:44;;;;;;;5.90;2.55;;;37.70;89.70;;;;;;4999705;28;20038;-71
2022/08/07 12:36:12;;;;;;;7.50;4.30;;;38.10;90.10;;;;;;4966666;28;20057;-71
2022/08/07 12:38:40;;;;;;;8.68;3.63;;;37.60;89.60;;;;;;4982899;28;20038;-72
2022/08/07 12:41:08;;;;;;;5.15;2.70;;;38.40;89.00;;;;;;4982056;28;20157;-71
2022/08/07 12:43:35;;;;;;;5.57;2.58;;;36.80;89.70;;;;;;4996064;28;20069;-71
2022/08/07 12:46:19;;;;;;;3.25;2.20;;;36.70;89.80;;;;;;4980092;28;20037;-71
2022/08/07 12:48:57;;;;;;;5.85;2.67;;;36.90;89.70;;;;;;4977283;28;20907;-70
2022/08/07 12:51:36;;;;;;;5.20;2.40;;;36.80;90.40;;;;;;4998754;28;20537;-71
2022/08/07 12:54:11;;;;;;;5.18;2.20;;;35.60;90.80;;;;;;4997128;28;20037;-71
2022/08/07 12:56:41;;;;;;;5.50;2.53;;;35.80;90.40;;;;;;5002855;28;20743;-71
2022/08/07 12:59:10;;;;;;;6.50;2.60;;;36.20;90.50;;;;;;4980156;28;20030;-71
2022/08/07 13:02:06;;;;;;;4.40;2.00;;;36.70;90.30;;;;;;4982689;28;20034;-72
2022/08/07 13:05:06;;;;;;;5.60;2.30;;;36.80;87.30;;;;;;4992175;28;20062;-70
2022/08/07 13:08:05;;;;;;;3.15;1.92;;;36.50;86.90;;;;;;4995247;28;20049;-70
2022/08/07 13:11:00;;;;;;;3.30;1.63;;;36.90;85.50;;;;;;4990750;28;20042;-71
2022/08/07 13:13:45;;;;;;;8.60;2.35;;;36.70;86.20;;;;;;4939347;28;20114;-72
2022/08/07 13:16:55;;;;;;;3.13;1.70;;;37.70;88.00;;;;;;4994235;28;20042;-71
2022/08/07 13:19:45;;;;;;;4.70;2.00;;;37.30;85.40;;;;;;4931049;28;20040;-70
2022/08/07 13:22:29;;;;;;;3.72;2.20;;;35.60;89.30;;;;;;4992060;28;20038;-71
2022/08/07 13:25:10;;;;;;;3.03;1.90;;;36.80;89.00;;;;;;4994662;28;20366;-71
2022/08/07 13:27:40;;;;;;;4.05;2.13;;;37.60;88.20;;;;;;4996163;28;20041;-71
2022/08/07 13:30:12;;;;;;;5.18;2.00;;;38.10;85.80;;;;;;4977120;28;20080;-71
2022/08/07 13:32:51;;;;;;;3.30;1.90;;;36.90;83.30;;;;;;4997148;28;20045;-71